PST,Max TemperatureF,Mean TemperatureF,Min TemperatureF,Max Dew PointF,MeanDew PointF,Min DewpointF,Max Humidity, Mean Humidity, Min Humidity, Max Sea Level PressureIn, Mean Sea Level PressureIn, Min Sea Level PressureIn, Max VisibilityMiles, Mean VisibilityMiles, Min VisibilityMiles, Max Wind SpeedMPH, Mean Wind SpeedMPH, Max Gust SpeedMPH,PrecipitationIn, CloudCover, Events, WindDirDegrees
2012-12-1,55,52,48,52,50,46,100,93,83,29.79,29.63,29.34,10,9,2,20,11,31,1.59,7,,177
2012-12-2,54,50,45,52,48,43,100,89,71,30.03,29.72,29.33,10,9,2,20,11,30,0.40,5,,198
2012-12-3,57,53,48,50,48,46,100,86,72,30.09,29.98,29.70,10,10,6,12,8,17,0.14,6,,154
2012-12-4,61,55,48,55,55,52,93,93,89,29.98,29.88,29.70,10,6,3,22,18,31,0.00,8,Rain,189
2012-12-5,52,49,46,48,45,41,100,94,74,30.29,30.25,30.19,10,9,0,6,3,6,0.01,3,Fog,105
2012-12-6,54,47,39,46,43,39,100,94,71,30.31,30.29,30.26,10,9,2,9,6,,0.01,5,,154
2012-12-7,52,49,45,50,46,43,100,96,83,30.29,30.26,30.24,10,9,3,10,6,,0.10,6,,164
2012-12-8,52,47,41,46,43,39,100,95,74,30.38,30.32,30.27,10,9,0,7,3,,0.00,4,,129
2012-12-9,54,49,43,50,45,41,100,92,77,30.42,30.39,30.37,10,10,5,9,4,,0.00,6,,142
2012-12-10,54,50,45,52,48,43,100,98,89,30.44,30.35,30.16,10,5,0,8,2,,0.00,6,,88
2012-12-11,50,47,43,48,44,39,100,92,76,30.14,29.89,29.69,10,8,0,22,9,37,0.36,8,,187
2012-12-12,48,44,39,45,42,37,100,96,76,30.02,29.91,29.81,10,10,7,9,6,,0.20,6,,148
2012-12-13,50,42,34,43,39,34,100,94,66,30.05,29.97,29.86,10,10,5,8,4,,0.03,4,,139
2012-12-14,50,44,37,45,41,36,100,94,80,30.02,29.95,29.86,10,9,2,9,6,,0.31,5,,141
2012-12-15,50,43,36,46,41,36,100,93,77,29.96,29.84,29.70,10,9,5,20,9,31,0.26,7,,172
2012-12-16,54,50,45,54,46,43,100,92,83,29.92,29.67,29.39,10,8,2,36,16,50,0.79,8,,179
2012-12-17,54,46,37,45,39,34,100,80,53,30.09,29.92,29.56,10,10,5,36,18,53,0.06,7,,252
2012-12-18,45,41,36,41,37,34,100,96,85,30.15,30.11,30.08,10,10,4,18,9,24,0.22,6,,149
2012-12-19,52,45,37,45,41,36,100,85,71,30.10,29.87,29.62,10,10,10,25,16,38,0.31,8,,157
2012-12-20,52,45,37,46,40,36,100,95,80,29.82,29.74,29.58,10,9,4,23,13,32,2.47,7,,154
2012-12-21,46,45,43,43,42,39,100,92,83,29.77,29.69,29.56,10,10,7,15,11,21,0.36,6,,140
2012-12-22,45,42,39,43,41,37,100,94,89,29.82,29.68,29.54,10,10,5,16,11,23,1.44,7,Thunderstorm,153
2012-12-23,46,43,39,45,42,37,100,95,92,30.02,29.78,29.62,10,10,7,15,7,17,0.75,7,,144
2012-12-24,50,45,39,45,41,37,100,91,77,30.24,30.13,29.96,10,10,8,9,7,,0.01,5,,150
2012-12-25,52,48,43,48,44,37,100,91,76,29.95,29.73,29.65,10,10,5,17,10,27,0.32,7,,158
2012-12-26,48,46,43,45,43,39,100,91,76,30.13,29.94,29.74,10,9,4,17,9,22,0.58,8,,303
2012-12-27,48,44,39,45,43,39,100,95,80,30.22,30.18,30.13,10,10,3,7,6,7,0.06,8,,149
2012-12-28,46,44,41,45,42,39,100,95,86,30.15,30.11,30.08,10,10,10,7,5,7,0.02,8,,133
2012-12-29,48,41,34,43,38,34,100,93,71,30.22,30.17,30.14,10,10,8,8,4,,0.00,3,,142
2012-12-30,48,40,32,39,36,30,100,91,76,30.27,30.22,30.18,10,10,9,10,6,14,0.00,0,,117
2012-12-31,46,40,34,45,39,32,100,94,82,30.35,30.27,30.23,10,10,4,9,7,,0.01,6,,146